Time;durP1;ratioP1;P1;durP2;ratioP2;P2;SDS_P1;SDS_P2;PMS_P1;PMS_P2;Temp;Humidity;BMP_temperature;BMP_pressure;BME280_temperature;BME280_humidity;BME280_pressure;Samples;Min_cycle;Max_cycle;Signal;HPM_P1;HPM_P2
2022/08/11 00:01:47;;;;;;;2.90;1.80;;;21.90;47.10;;;;;;4993695;28;20034;-46
2022/08/11 00:04:15;;;;;;;3.03;1.70;;;21.80;47.10;;;;;;4993623;28;20044;-46
2022/08/11 00:06:44;;;;;;;2.95;1.63;;;21.80;47.40;;;;;;4991869;28;20026;-45
2022/08/11 00:09:17;;;;;;;3.00;1.45;;;21.80;47.60;;;;;;4993288;28;20049;-46
2022/08/11 00:11:48;;;;;;;6.32;1.50;;;21.60;47.70;;;;;;4993490;28;20102;-47
2022/08/11 00:14:28;;;;;;;3.83;1.52;;;21.60;47.90;;;;;;4995997;28;20033;-47
2022/08/11 00:17:02;;;;;;;6.32;1.98;;;21.60;47.80;;;;;;4997171;28;20027;-47
2022/08/11 00:19:36;;;;;;;3.35;1.40;;;21.60;47.80;;;;;;4996869;28;20034;-46
2022/08/11 00:22:04;;;;;;;4.38;1.58;;;21.50;48.10;;;;;;4995705;28;20114;-47
2022/08/11 00:24:37;;;;;;;2.17;1.77;;;21.50;48.30;;;;;;4996712;28;20524;-44
2022/08/11 00:27:04;;;;;;;2.95;1.98;;;21.50;48.30;;;;;;4995156;28;20034;-47
2022/08/11 00:29:30;;;;;;;3.88;1.65;;;21.50;48.40;;;;;;4996674;28;20368;-47
2022/08/11 00:32:00;;;;;;;3.47;1.92;;;21.40;48.50;;;;;;4996601;28;20474;-46
2022/08/11 00:34:29;;;;;;;3.25;1.63;;;21.40;48.70;;;;;;4998014;28;20273;-45
2022/08/11 00:37:20;;;;;;;7.28;1.60;;;21.50;48.70;;;;;;4995278;28;20073;-47
2022/08/11 00:39:50;;;;;;;2.03;1.30;;;21.40;48.80;;;;;;4993778;28;20052;-47
2022/08/11 00:42:28;;;;;;;2.63;1.58;;;21.30;49.00;;;;;;4996786;28;20339;-45
2022/08/11 00:45:09;;;;;;;4.38;1.90;;;21.30;49.20;;;;;;4996551;28;20113;-46
2022/08/11 00:47:43;;;;;;;1.63;1.45;;;21.30;49.30;;;;;;4996359;28;20086;-46
2022/08/11 00:50:34;;;;;;;1.98;1.48;;;21.30;49.30;;;;;;4996591;28;20447;-46
2022/08/11 00:53:37;;;;;;;3.75;1.83;;;21.10;49.80;;;;;;4996518;28;20529;-46
2022/08/11 00:56:13;;;;;;;5.15;2.13;;;21.00;50.20;;;;;;4996265;28;20041;-46
2022/08/11 00:59:00;;;;;;;7.60;1.67;;;21.00;50.20;;;;;;4996201;28;20034;-47
2022/08/11 01:01:53;;;;;;;4.13;1.70;;;21.10;50.20;;;;;;4996563;28;20023;-46
2022/08/11 01:04:59;;;;;;;7.72;1.67;;;21.00;50.40;;;;;;4996836;28;20034;-47
2022/08/11 01:07:48;;;;;;;3.10;1.90;;;20.80;50.50;;;;;;4996560;28;20022;-45
2022/08/11 01:10:55;;;;;;;5.72;1.65;;;20.80;50.90;;;;;;4997009;28;20030;-47
2022/08/11 01:13:21;;;;;;;1.50;1.35;;;20.80;50.90;;;;;;4997385;28;20122;-45
2022/08/11 01:16:05;;;;;;;6.85;1.55;;;20.70;51.20;;;;;;4996682;28;20054;-46
2022/08/11 01:18:55;;;;;;;3.47;1.58;;;20.70;51.50;;;;;;4997277;28;20125;-46
2022/08/11 01:21:39;;;;;;;2.85;1.48;;;20.50;51.60;;;;;;4996837;28;20030;-45
2022/08/11 01:24:27;;;;;;;10.65;1.80;;;20.40;51.90;;;;;;4997382;28;20069;-45
2022/08/11 01:27:30;;;;;;;2.00;1.55;;;20.30;52.30;;;;;;4996970;28;20045;-46
2022/08/11 01:30:17;;;;;;;1.98;1.60;;;20.30;52.50;;;;;;4996751;28;20545;-47
2022/08/11 01:33:02;;;;;;;2.90;1.92;;;20.20;52.70;;;;;;4996440;28;20062;-51
2022/08/11 01:36:01;;;;;;;4.03;1.80;;;20.20;52.90;;;;;;4996374;28;20058;-46
2022/08/11 01:38:55;;;;;;;4.00;1.83;;;20.20;53.00;;;;;;4996077;28;20018;-45
2022/08/11 01:44:43;;;;;;;10.00;2.10;;;20.10;53.20;;;;;;4995706;28;20057;-45
2022/08/11 01:47:54;;;;;;;3.75;1.75;;;20.00;53.40;;;;;;4995801;28;20023;-46
2022/08/11 01:50:42;;;;;;;5.53;2.13;;;19.90;53.50;;;;;;4995727;28;20419;-47
2022/08/11 01:53:29;;;;;;;4.78;1.67;;;19.90;53.70;;;;;;4995521;28;20049;-46
2022/08/11 01:56:23;;;;;;;3.42;1.70;;;19.80;53.80;;;;;;4994025;28;20031;-45
2022/08/11 01:59:09;;;;;;;5.53;1.90;;;19.80;54.00;;;;;;4995435;28;20026;-45
2022/08/11 02:01:44;;;;;;;2.75;1.67;;;19.80;54.20;;;;;;4995172;28;20105;-45
2022/08/11 02:05:05;;;;;;;2.70;1.60;;;19.70;54.40;;;;;;4993703;28;20022;-45
2022/08/11 02:07:57;;;;;;;7.75;1.85;;;19.70;54.50;;;;;;4981345;28;20102;-46
2022/08/11 02:13:56;;;;;;;5.40;2.05;;;19.70;54.80;;;;;;4995182;28;20025;-46
2022/08/11 02:16:43;;;;;;;3.90;2.10;;;19.70;54.60;;;;;;4993517;28;20064;-46
2022/08/11 02:25:22;;;;;;;4.40;2.50;;;19.60;55.00;;;;;;4995123;28;20137;-45
2022/08/11 02:28:27;;;;;;;5.32;1.73;;;19.50;55.20;;;;;;4994432;28;20046;-46
2022/08/11 02:34:29;;;;;;;3.00;1.85;;;19.40;55.60;;;;;;4993247;28;20113;-45
2022/08/11 02:37:14;;;;;;;5.03;1.60;;;19.30;55.80;;;;;;4993473;28;20026;-45
2022/08/11 02:39:52;;;;;;;7.30;1.50;;;19.30;55.90;;;;;;4993980;28;20061;-46
2022/08/11 02:42:41;;;;;;;2.13;1.75;;;19.30;55.90;;;;;;4994445;28;20422;-45
2022/08/11 02:45:18;;;;;;;3.85;1.90;;;19.30;56.00;;;;;;4993021;28;20030;-45
2022/08/11 02:50:58;;;;;;;5.28;2.10;;;19.30;56.20;;;;;;4994078;28;20045;-46
2022/08/11 02:53:54;;;;;;;6.25;1.52;;;19.30;56.40;;;;;;4992518;28;20443;-45
2022/08/11 02:56:51;;;;;;;4.35;2.05;;;19.20;56.50;;;;;;4993787;28;20031;-45
2022/08/11 03:02:18;;;;;;;2.45;1.63;;;19.20;56.70;;;;;;4994039;28;20117;-44
2022/08/11 03:05:19;;;;;;;3.95;1.75;;;19.10;56.90;;;;;;4993822;28;20113;-48
2022/08/11 03:07:51;;;;;;;2.70;1.70;;;19.10;57.00;;;;;;4993648;28;20026;-45
2022/08/11 03:10:22;;;;;;;3.55;2.13;;;19.00;57.10;;;;;;4993843;28;20384;-46
2022/08/11 03:19:07;;;;;;;3.35;1.70;;;19.00;57.40;;;;;;4993943;28;20036;-45
2022/08/11 03:21:54;;;;;;;5.85;2.03;;;18.90;57.50;;;;;;4993591;28;20101;-45
2022/08/11 03:24:59;;;;;;;4.43;2.00;;;18.90;57.60;;;;;;4993461;28;20379;-45
2022/08/11 03:27:49;;;;;;;4.63;1.60;;;18.80;57.80;;;;;;4989239;28;20518;-44
2022/08/11 03:30:20;;;;;;;6.28;2.13;;;18.80;57.90;;;;;;4993445;28;20038;-45
2022/08/11 03:36:17;;;;;;;3.53;1.92;;;18.80;57.90;;;;;;4993739;28;20057;-45
2022/08/11 03:38:53;;;;;;;5.13;1.65;;;18.80;58.10;;;;;;4993539;28;20053;-47
2022/08/11 03:44:17;;;;;;;4.15;2.00;;;18.70;58.10;;;;;;4993470;28;20049;-46
2022/08/11 03:47:00;;;;;;;3.60;1.83;;;18.70;58.10;;;;;;4993746;28;20388;-45
2022/08/11 03:50:00;;;;;;;6.53;2.05;;;18.70;58.20;;;;;;4996878;28;20041;-45
